メインページ
METAR-TAF:

METAR-TAF

空港 :

Cherry Capital Airport

Traverse City, ミシガン州, アメリカ合衆国

緯度: 44-44-12N, 経度: 085-34-12W, 海抜: 190m

現時点の気象観測

当レポートは29分前の09:53(UTC)に作成
西/南西の風 4kt
気温 -7°C
湿度 67%
気圧 1024 hPa
視程: 16.1km
高度2400ftの曇り

METAR: KTVC 230953Z AUTO 24004KT 10SM OVC024 M07/M12 A3024 RMK AO2 SLP251 T10671117

時間: 05:22 (10:22 UTC)

予報

当レポートは2時間18分前の08:04(UTC)に作成
予報は23日の 08時(UTC)から 24日の 06時(UTC)まで有効
西の風 6kt
視程: 10km
高度2800ftの曇り
近辺でにわか雨
23日の 08時(UTC)から 23日の 12時(UTC)まで一時的に
高度3500ftの曇り
23日の 1200時(UTC)から
西の風 6kt
視程: 10km
高度3000ftの千切れ雲あり
23日の 1500時(UTC)から
西/南西の風 6kt
視程: 10km
高度3500ftの千切れ雲あり
23日の 2100時(UTC)から
西/南西の風 8kt
視程: 10km
高度6000ftの千切れ雲あり

TAF: KTVC 230804Z 2308/2406 26006KT P6SM VCSH OVC028 TEMPO 2308/2312 OVC035 FM231200 26006KT P6SM BKN030 FM231500 24006KT P6SM BKN035 FM232100 25008KT P6SM BKN060

4,000以上の空港の気象観測と天気予報(METAR報とTAF報)

利用可能な観測所は地図上に黄色い丸と赤い丸で示す。

丸の上にカーソルを重ねると観測所名を参照できる。

次にクリックすると気象観測と天気予報を参照できる。

マップの切り替え:黒色「×」印の緑ボタンをクリックして拡大、「-」印の緑ボタンをクリックして縮小、緑色の三角印をクリックして隣りの地図に切り替え


METAR-TAF: